Broadlands, Illinois
Current Conditions -  °F | °C
As of 7:53 PM on Saturday 22 Nov 2014 (Local Time) from KCMI Reporting Station
Light Rain Light Rain  
Wind Chill:   Ceiling: 3400
Heat Index:   Visibility: 5mi
Dew Point:   Wind: 9mph
Humidity: 93%   Direction: 180°S
Pressure: 29.96"   Gusts: NA
Location:  39.91°N, 87.99°W
Report Text: KCMI 230153Z 18008KT 5SM -RA BR BKN034 OVC043 09/08 A2996 RMK AO2 RAB0056E05B24 SLP147 P0003 T00940083 $
Loading
Personal Weather Stations






























Interactive Weather Map New forecast layout! Learn more

10-Day Weather Forecast

Advertisements
Track Severe Weather on mobile